Time,TemperatureF,DewpointF,PressureIn,WindDirection,WindDirectionDegrees,WindSpeedMPH,WindSpeedGustMPH,Humidity,HourlyPrecipIn,Conditions,Clouds,dailyrainin,SoftwareType,DateUTC
2013-01-08 00:05:00,-1.6,-5.3,30.21,NNE,33,0.0,3.0,84,0.00,,,0.00,Wunderground PWS Mod,2013-01-08 05:05:00,
2013-01-08 00:11:00,-1.8,-5.5,30.21,NNE,33,0.0,2.0,84,0.00,,,0.00,Wunderground PWS Mod,2013-01-08 05:11:00,
2013-01-08 00:15:00,-1.8,-5.5,30.21,NNE,33,1.0,2.0,84,0.00,,,0.00,Wunderground PWS Mod,2013-01-08 05:15:00,
2013-01-08 00:20:00,-1.6,-5.3,30.20,NNE,33,2.0,2.0,84,0.00,,,0.00,Wunderground PWS Mod,2013-01-08 05:20:00,
2013-01-08 00:25:00,-1.6,-5.3,30.20,NNE,33,1.0,3.0,84,0.00,,,0.00,Wunderground PWS Mod,2013-01-08 05:25:00,
2013-01-08 00:30:00,-1.8,-5.5,30.20,NNE,33,1.0,2.0,84,0.00,,,0.00,Wunderground PWS Mod,2013-01-08 05:30:00,
2013-01-08 00:35:00,-1.8,-5.5,30.20,NNE,33,1.0,3.0,84,0.00,,,0.00,Wunderground PWS Mod,2013-01-08 05:35:00,
2013-01-08 00:40:00,-2.0,-5.6,30.20,NNE,33,2.0,4.0,84,0.00,,,0.00,Wunderground PWS Mod,2013-01-08 05:40:00,
2013-01-08 00:45:00,-1.8,-5.5,30.19,NNE,23,1.0,4.0,84,0.00,,,0.00,Wunderground PWS Mod,2013-01-08 05:45:00,
2013-01-08 00:50:00,-2.0,-5.9,30.20,NNE,33,1.0,4.0,83,0.00,,,0.00,Wunderground PWS Mod,2013-01-08 05:50:00,
2013-01-08 00:55:00,-2.0,-5.9,30.20,NNE,33,1.0,4.0,83,0.00,,,0.00,Wunderground PWS Mod,2013-01-08 05:55:00,
2013-01-08 01:00:00,-2.0,-5.6,30.20,NNE,33,2.0,4.0,84,0.00,,,0.00,Wunderground PWS Mod,2013-01-08 06:00:00,
2013-01-08 01:11:00,-1.8,-5.5,30.19,NNE,33,1.0,4.0,84,0.00,,,0.00,Wunderground PWS Mod,2013-01-08 06:11:00,
2013-01-08 01:20:00,-1.8,-5.7,30.19,NNE,33,0.0,4.0,83,0.00,,,0.00,Wunderground PWS Mod,2013-01-08 06:20:00,
2013-01-08 01:25:00,-2.0,-5.9,30.19,NNE,33,1.0,4.0,83,0.00,,,0.00,Wunderground PWS Mod,2013-01-08 06:25:00,
2013-01-08 01:30:00,-2.2,-6.1,30.19,NNE,33,1.0,4.0,83,0.00,,,0.00,Wunderground PWS Mod,2013-01-08 06:30:00,
2013-01-08 01:35:00,-2.2,-6.1,30.19,NNE,33,0.0,4.0,83,0.00,,,0.00,Wunderground PWS Mod,2013-01-08 06:35:00,
2013-01-08 01:40:00,-2.2,-6.1,30.19,NNE,33,0.0,3.0,83,0.00,,,0.00,Wunderground PWS Mod,2013-01-08 06:40:00,
2013-01-08 01:45:00,-2.0,-5.6,30.18,NNE,23,1.0,4.0,84,0.00,,,0.00,Wunderground PWS Mod,2013-01-08 06:45:00,
2013-01-08 01:50:00,-2.2,-6.1,30.18,NNE,33,1.0,3.0,83,0.00,,,0.00,Wunderground PWS Mod,2013-01-08 06:50:00,
2013-01-08 01:55:00,-2.2,-5.8,30.18,NNE,33,0.0,3.0,84,0.00,,,0.00,Wunderground PWS Mod,2013-01-08 06:55:00,
2013-01-08 02:00:00,-2.2,-5.8,30.18,NNE,33,1.0,3.0,84,0.00,,,0.00,Wunderground PWS Mod,2013-01-08 07:00:00,
2013-01-08 02:05:00,-2.0,-5.6,30.18,NNE,33,1.0,3.0,84,0.00,,,0.00,Wunderground PWS Mod,2013-01-08 07:05:00,
2013-01-08 02:11:00,-2.2,-6.1,30.18,NE,39,2.0,4.0,83,0.00,,,0.00,Wunderground PWS Mod,2013-01-08 07:11:00,
2013-01-08 02:20:00,-2.0,-5.6,30.18,NNE,28,1.0,4.0,84,0.00,,,0.00,Wunderground PWS Mod,2013-01-08 07:20:00,
2013-01-08 02:25:00,-1.8,-5.5,30.18,NNE,28,0.0,4.0,84,0.00,,,0.00,Wunderground PWS Mod,2013-01-08 07:25:00,
2013-01-08 02:35:00,-1.6,-5.3,30.17,NNE,28,0.0,4.0,84,0.00,,,0.00,Wunderground PWS Mod,2013-01-08 07:35:00,
2013-01-08 02:40:00,-1.6,-5.3,30.17,NNE,28,1.0,5.0,84,0.00,,,0.00,Wunderground PWS Mod,2013-01-08 07:40:00,
2013-01-08 02:45:00,-1.0,-4.4,30.16,NNE,23,1.0,6.0,85,0.00,,,0.00,Wunderground PWS Mod,2013-01-08 07:45:00,
2013-01-08 02:50:00,-1.4,-5.1,30.18,NE,45,1.0,5.0,84,0.00,,,0.00,Wunderground PWS Mod,2013-01-08 07:50:00,
2013-01-08 02:55:00,-1.6,-5.3,30.18,NNE,15,1.0,5.0,84,0.00,,,0.00,Wunderground PWS Mod,2013-01-08 07:55:00,
2013-01-08 03:00:00,-1.4,-5.1,30.18,NNE,15,1.0,5.0,84,0.00,,,0.00,Wunderground PWS Mod,2013-01-08 08:00:00,
2013-01-08 03:11:00,-0.6,-3.8,30.16,NNE,15,1.0,6.0,86,0.00,,,0.00,Wunderground PWS Mod,2013-01-08 08:11:00,
2013-01-08 03:15:00,-0.2,-3.9,30.14,NNE,23,0.0,4.0,84,0.00,,,0.00,Wunderground PWS Mod,2013-01-08 08:15:00,
2013-01-08 03:20:00,0.0,-3.4,30.15,NNE,15,0.0,6.0,85,0.00,,,0.00,Wunderground PWS Mod,2013-01-08 08:20:00,
2013-01-08 03:25:00,0.1,-3.3,30.15,NNE,15,0.0,6.0,85,0.00,,,0.00,Wunderground PWS Mod,2013-01-08 08:25:00,
2013-01-08 03:30:00,0.1,-3.3,30.15,NNE,15,0.0,6.0,85,0.00,,,0.00,Wunderground PWS Mod,2013-01-08 08:30:00,
2013-01-08 03:40:00,-0.4,-3.8,30.14,NE,35,2.0,4.0,85,0.00,,,0.00,Wunderground PWS Mod,2013-01-08 08:40:00,
2013-01-08 03:45:00,-0.2,-3.9,30.14,North,360,2.0,4.0,84,0.00,,,0.00,Wunderground PWS Mod,2013-01-08 08:45:00,
2013-01-08 03:50:00,-0.6,-4.3,30.15,North,360,1.0,4.0,84,0.00,,,0.00,Wunderground PWS Mod,2013-01-08 08:50:00,
2013-01-08 04:00:00,-0.6,-4.0,30.15,North,360,0.0,4.0,85,0.00,,,0.00,Wunderground PWS Mod,2013-01-08 09:00:00,
2013-01-08 04:05:00,-0.6,-4.0,30.15,North,360,0.0,4.0,85,0.00,,,0.00,Wunderground PWS Mod,2013-01-08 09:05:00,
2013-01-08 04:11:00,-0.4,-3.8,30.15,North,360,0.0,5.0,85,0.00,,,0.00,Wunderground PWS Mod,2013-01-08 09:11:00,
2013-01-08 04:20:00,-0.2,-3.6,30.14,NNE,32,1.0,5.0,85,0.00,,,0.00,Wunderground PWS Mod,2013-01-08 09:20:00,
2013-01-08 04:25:00,0.1,-3.1,30.14,NNE,32,1.0,5.0,86,0.00,,,0.00,Wunderground PWS Mod,2013-01-08 09:25:00,
2013-01-08 04:30:00,0.3,-3.1,30.14,NNE,32,1.0,5.0,85,0.00,,,0.00,Wunderground PWS Mod,2013-01-08 09:30:00,
2013-01-08 04:40:00,0.3,-3.1,30.15,NNE,27,3.0,4.0,85,0.00,,,0.00,Wunderground PWS Mod,2013-01-08 09:40:00,
2013-01-08 04:45:00,0.3,-3.1,30.15,NNE,24,3.0,4.0,85,0.00,,,0.00,Wunderground PWS Mod,2013-01-08 09:45:00,
2013-01-08 04:55:00,0.7,-2.7,30.15,NNE,24,0.0,4.0,85,0.00,,,0.00,Wunderground PWS Mod,2013-01-08 09:55:00,
2013-01-08 05:00:00,0.9,-2.3,30.15,NNE,24,0.0,4.0,86,0.00,,,0.00,Wunderground PWS Mod,2013-01-08 10:00:00,
2013-01-08 05:11:00,0.7,-2.7,30.15,NNE,24,0.0,5.0,85,0.00,,,0.00,Wunderground PWS Mod,2013-01-08 10:11:00,
2013-01-08 05:15:00,0.7,-2.7,30.17,NNE,23,1.0,4.0,85,0.00,,,0.00,Wunderground PWS Mod,2013-01-08 10:15:00,
2013-01-08 05:20:00,0.5,-2.9,30.15,NNE,24,0.0,5.0,85,0.00,,,0.00,Wunderground PWS Mod,2013-01-08 10:20:00,
2013-01-08 05:25:00,0.5,-2.9,30.15,NNE,24,1.0,5.0,85,0.00,,,0.00,Wunderground PWS Mod,2013-01-08 10:25:00,
2013-01-08 05:30:00,0.7,-2.7,30.15,NNE,24,1.0,5.0,85,0.00,,,0.00,Wunderground PWS Mod,2013-01-08 10:30:00,
2013-01-08 05:35:00,0.5,-2.9,30.17,NNE,24,1.0,5.0,85,0.00,,,0.00,Wunderground PWS Mod,2013-01-08 10:35:00,
2013-01-08 05:40:00,0.5,-2.9,30.17,NNE,24,2.0,4.0,85,0.00,,,0.00,Wunderground PWS Mod,2013-01-08 10:40:00,
2013-01-08 05:50:00,0.7,-2.5,30.17,NNE,24,2.0,4.0,86,0.00,,,0.00,Wunderground PWS Mod,2013-01-08 10:50:00,
2013-01-08 05:55:00,1.1,-2.1,30.17,NNE,24,2.0,4.0,86,0.00,,,0.00,Wunderground PWS Mod,2013-01-08 10:55:00,
2013-01-08 06:05:00,1.7,-1.5,30.17,NNE,24,1.0,4.0,86,0.00,,,0.00,Wunderground PWS Mod,2013-01-08 11:05:00,
2013-01-08 06:11:00,1.5,-2.0,30.17,NNE,24,1.0,4.0,85,0.00,,,0.00,Wunderground PWS Mod,2013-01-08 11:11:00,
2013-01-08 06:20:00,0.7,-2.7,30.18,NNE,24,2.0,4.0,85,0.00,,,0.00,Wunderground PWS Mod,2013-01-08 11:20:00,
2013-01-08 06:25:00,1.1,-2.1,30.18,North,5,1.0,4.0,86,0.00,,,0.00,Wunderground PWS Mod,2013-01-08 11:25:00,
2013-01-08 06:35:00,0.7,-3.0,30.19,North,5,2.0,4.0,84,0.00,,,0.00,Wunderground PWS Mod,2013-01-08 11:35:00,
2013-01-08 06:41:00,0.5,-2.9,30.19,North,5,1.0,4.0,85,0.00,,,0.00,Wunderground PWS Mod,2013-01-08 11:41:00,
2013-01-08 06:45:00,1.5,-1.7,30.17,North,0,0.0,3.0,86,0.00,,,0.00,Wunderground PWS Mod,2013-01-08 11:45:00,
2013-01-08 06:50:00,0.9,-2.6,30.17,NE,48,0.0,4.0,85,0.00,,,0.00,Wunderground PWS Mod,2013-01-08 11:50:00,
2013-01-08 07:00:00,1.3,-1.7,30.17,NE,48,0.0,4.0,87,0.00,,,0.00,Wunderground PWS Mod,2013-01-08 12:00:00,
2013-01-08 07:05:00,1.7,-1.5,30.17,NE,48,0.0,4.0,86,0.00,,,0.00,Wunderground PWS Mod,2013-01-08 12:05:00,
2013-01-08 07:11:00,1.7,-1.8,30.17,NE,48,0.0,3.0,85,0.00,,,0.00,Wunderground PWS Mod,2013-01-08 12:11:00,
2013-01-08 07:20:00,1.1,-2.4,30.19,NNE,21,2.0,3.0,85,0.00,,,0.00,Wunderground PWS Mod,2013-01-08 12:20:00,
2013-01-08 07:25:00,1.1,-2.1,30.19,NNE,21,1.0,3.0,86,0.00,,,0.00,Wunderground PWS Mod,2013-01-08 12:25:00,
2013-01-08 07:30:00,1.5,-1.5,30.19,NNE,21,0.0,3.0,87,0.00,,,0.00,Wunderground PWS Mod,2013-01-08 12:30:00,
2013-01-08 07:40:00,1.5,-2.0,30.19,NNE,21,0.0,4.0,85,0.00,,,0.00,Wunderground PWS Mod,2013-01-08 12:40:00,
2013-01-08 07:45:00,1.5,-1.7,30.19,NNE,21,0.0,4.0,86,0.00,,,0.00,Wunderground PWS Mod,2013-01-08 12:45:00,
2013-01-08 07:55:00,1.8,-1.4,30.20,ENE,62,1.0,4.0,86,0.00,,,0.00,Wunderground PWS Mod,2013-01-08 12:55:00,
2013-01-08 08:00:00,2.2,-1.0,30.20,NNE,30,1.0,4.0,86,0.00,,,0.00,Wunderground PWS Mod,2013-01-08 13:00:00,
2013-01-08 08:05:00,2.2,-1.0,30.20,NNE,30,1.0,4.0,86,0.00,,,0.00,Wunderground PWS Mod,2013-01-08 13:05:00,
2013-01-08 08:11:00,2.4,-0.8,30.20,NNE,30,0.0,4.0,86,0.00,,,0.00,Wunderground PWS Mod,2013-01-08 13:11:00,
2013-01-08 08:15:00,3.4,0.4,30.21,NNE,23,0.0,3.0,87,0.00,,,0.00,Wunderground PWS Mod,2013-01-08 13:15:00,
2013-01-08 08:20:00,2.8,-0.2,30.20,NNE,30,0.0,4.0,87,0.00,,,0.00,Wunderground PWS Mod,2013-01-08 13:20:00,
2013-01-08 08:25:00,3.0,0.0,30.20,NNE,30,0.0,4.0,87,0.00,,,0.00,Wunderground PWS Mod,2013-01-08 13:25:00,
2013-01-08 08:35:00,3.4,0.4,30.21,NNE,30,1.0,4.0,87,0.00,,,0.00,Wunderground PWS Mod,2013-01-08 13:35:00,
2013-01-08 08:40:00,3.5,0.5,30.21,NNE,30,0.0,3.0,87,0.00,,,0.00,Wunderground PWS Mod,2013-01-08 13:40:00,
2013-01-08 08:45:00,3.7,0.7,30.21,NNE,30,0.0,3.0,87,0.00,,,0.00,Wunderground PWS Mod,2013-01-08 13:45:00,
2013-01-08 08:55:00,4.8,2.3,30.21,NNE,30,0.0,3.0,89,0.00,,,0.00,Wunderground PWS Mod,2013-01-08 13:55:00,
2013-01-08 09:00:00,5.6,3.1,30.21,NNE,30,0.0,3.0,89,0.00,,,0.00,Wunderground PWS Mod,2013-01-08 14:00:00,
2013-01-08 09:05:00,6.3,3.8,30.21,NNE,30,0.0,3.0,89,0.00,,,0.00,Wunderground PWS Mod,2013-01-08 14:05:00,
2013-01-08 09:11:00,7.2,4.9,30.21,NNE,30,0.0,2.0,90,0.00,,,0.00,Wunderground PWS Mod,2013-01-08 14:11:00,
2013-01-08 09:15:00,10.4,8.5,30.20,NNE,23,1.0,3.0,92,0.00,,,0.00,Wunderground PWS Mod,2013-01-08 14:15:00,
2013-01-08 09:20:00,8.1,5.8,30.21,NNE,30,1.0,2.0,90,0.00,,,0.00,Wunderground PWS Mod,2013-01-08 14:20:00,
2013-01-08 09:25:00,8.8,6.7,30.21,NNE,30,0.0,2.0,91,0.00,,,0.00,Wunderground PWS Mod,2013-01-08 14:25:00,
2013-01-08 09:30:00,9.5,7.4,30.21,NNE,30,1.0,2.0,91,0.00,,,0.00,Wunderground PWS Mod,2013-01-08 14:30:00,
2013-01-08 09:35:00,10.4,8.5,30.20,NNE,30,1.0,2.0,92,0.00,,,0.00,Wunderground PWS Mod,2013-01-08 14:35:00,
2013-01-08 09:40:00,11.2,9.3,30.20,NNE,30,0.0,3.0,92,0.00,,,0.00,Wunderground PWS Mod,2013-01-08 14:40:00,
2013-01-08 09:50:00,12.9,11.3,30.20,NNE,30,1.0,3.0,93,0.00,,,0.00,Wunderground PWS Mod,2013-01-08 14:50:00,
2013-01-08 09:55:00,13.5,11.9,30.20,NNE,30,1.0,3.0,93,0.00,,,0.00,Wunderground PWS Mod,2013-01-08 14:55:00,
2013-01-08 10:00:00,14.0,12.3,30.20,NNE,30,0.0,3.0,93,0.00,,,0.00,Wunderground PWS Mod,2013-01-08 15:00:00,
2013-01-08 10:05:00,14.3,12.6,30.20,NNE,30,0.0,3.0,93,0.00,,,0.00,Wunderground PWS Mod,2013-01-08 15:05:00,
2013-01-08 10:11:00,14.8,13.1,30.20,NNE,30,0.0,2.0,93,0.00,,,0.00,Wunderground PWS Mod,2013-01-08 15:11:00,
2013-01-08 10:20:00,15.7,14.3,30.20,NNE,30,0.0,2.0,94,0.00,,,0.00,Wunderground PWS Mod,2013-01-08 15:20:00,
2013-01-08 10:25:00,16.2,14.8,30.20,NNE,30,0.0,2.0,94,0.00,,,0.00,Wunderground PWS Mod,2013-01-08 15:25:00,
2013-01-08 10:30:00,16.9,15.5,30.20,NNE,30,0.0,2.0,94,0.00,,,0.00,Wunderground PWS Mod,2013-01-08 15:30:00,
2013-01-08 10:35:00,17.5,16.1,30.19,NNE,30,0.0,2.0,94,0.00,,,0.00,Wunderground PWS Mod,2013-01-08 15:35:00,
2013-01-08 10:40:00,18.1,16.9,30.19,NNE,30,0.0,2.0,95,0.00,,,0.00,Wunderground PWS Mod,2013-01-08 15:40:00,
2013-01-08 10:50:00,20.0,19.0,30.18,NNE,30,0.0,2.0,96,0.00,,,0.00,Wunderground PWS Mod,2013-01-08 15:50:00,
2013-01-08 10:55:00,20.6,19.4,30.18,NNE,30,0.0,2.0,95,0.00,,,0.00,Wunderground PWS Mod,2013-01-08 15:55:00,
2013-01-08 11:00:00,21.4,20.2,30.18,NNE,30,0.0,2.0,95,0.00,,,0.00,Wunderground PWS Mod,2013-01-08 16:00:00,
2013-01-08 11:11:00,22.9,21.4,30.17,NNE,30,0.0,0.0,94,0.00,,,0.00,Wunderground PWS Mod,2013-01-08 16:11:00,
2013-01-08 11:15:00,26.1,23.3,30.17,N/A,-737280,0.0,0.0,89,0.00,,,0.00,Wunderground PWS Mod,2013-01-08 16:15:00,
2013-01-08 11:20:00,24.1,22.9,30.17,NNE,30,0.0,0.0,95,0.00,,,0.00,Wunderground PWS Mod,2013-01-08 16:20:00,
2013-01-08 11:30:00,25.3,23.0,30.17,NNE,30,0.0,0.0,91,0.00,,,0.00,Wunderground PWS Mod,2013-01-08 16:30:00,
2013-01-08 11:35:00,26.1,23.3,30.17,NNE,30,0.0,0.0,89,0.00,,,0.00,Wunderground PWS Mod,2013-01-08 16:35:00,
2013-01-08 11:40:00,27.3,23.1,30.17,NNE,30,0.0,0.0,84,0.00,,,0.00,Wunderground PWS Mod,2013-01-08 16:40:00,
2013-01-08 11:45:00,30.4,22.8,30.16,N/A,-737280,0.0,0.0,73,0.00,,,0.00,Wunderground PWS Mod,2013-01-08 16:45:00,
2013-01-08 11:50:00,28.4,23.3,30.17,NNE,30,0.0,0.0,81,0.00,,,0.00,Wunderground PWS Mod,2013-01-08 16:50:00,
2013-01-08 11:55:00,29.0,23.3,30.17,NNE,30,0.0,0.0,79,0.00,,,0.00,Wunderground PWS Mod,2013-01-08 16:55:00,
2013-01-08 12:00:00,29.7,23.1,30.17,NNE,30,0.0,0.0,76,0.00,,,0.00,Wunderground PWS Mod,2013-01-08 17:00:00,
2013-01-08 12:05:00,30.4,22.4,30.16,NNE,30,0.0,0.0,72,0.00,,,0.00,Wunderground PWS Mod,2013-01-08 17:05:00,
2013-01-08 12:11:00,31.2,22.9,30.16,NNE,30,0.0,0.0,71,0.00,,,0.00,Wunderground PWS Mod,2013-01-08 17:11:00,
2013-01-08 12:15:00,32.8,23.7,30.16,NNE,23,0.0,1.0,69,0.00,,,0.00,Wunderground PWS Mod,2013-01-08 17:15:00,
2013-01-08 12:20:00,31.9,23.6,30.15,NNE,30,0.0,0.0,71,0.00,,,0.00,Wunderground PWS Mod,2013-01-08 17:20:00,
2013-01-08 12:25:00,32.2,23.2,30.15,NNE,30,0.0,0.0,69,0.00,,,0.00,Wunderground PWS Mod,2013-01-08 17:25:00,
2013-01-08 12:30:00,32.8,23.7,30.15,NNE,30,0.0,0.0,69,0.00,,,0.00,Wunderground PWS Mod,2013-01-08 17:30:00,
2013-01-08 12:35:00,32.8,23.7,30.16,NNE,30,0.0,0.0,69,0.00,,,0.00,Wunderground PWS Mod,2013-01-08 17:35:00,
2013-01-08 12:40:00,32.7,22.9,30.16,NNE,30,0.0,1.0,67,0.00,,,0.00,Wunderground PWS Mod,2013-01-08 17:40:00,
2013-01-08 12:45:00,34.7,24.5,30.15,NNE,23,0.0,2.0,66,0.00,,,0.00,Wunderground PWS Mod,2013-01-08 17:45:00,
2013-01-08 12:50:00,33.1,24.0,30.16,NNE,30,0.0,1.0,69,0.00,,,0.00,Wunderground PWS Mod,2013-01-08 17:50:00,
2013-01-08 12:55:00,33.5,24.1,30.16,NNE,30,0.0,1.0,68,0.00,,,0.00,Wunderground PWS Mod,2013-01-08 17:55:00,
2013-01-08 13:00:00,34.1,24.6,30.16,NNE,30,0.0,1.0,68,0.00,,,0.00,Wunderground PWS Mod,2013-01-08 18:00:00,
2013-01-08 13:05:00,34.7,23.8,30.15,NNE,30,0.0,1.0,64,0.00,,,0.00,Wunderground PWS Mod,2013-01-08 18:05:00,
2013-01-08 13:11:00,35.0,24.4,30.15,NNE,30,0.0,2.0,65,0.00,,,0.00,Wunderground PWS Mod,2013-01-08 18:11:00,
2013-01-08 13:20:00,35.2,25.0,30.16,SSE,154,0.0,2.0,66,0.00,,,0.00,Wunderground PWS Mod,2013-01-08 18:20:00,
2013-01-08 13:25:00,35.3,24.3,30.16,SE,136,0.0,2.0,64,0.00,,,0.00,Wunderground PWS Mod,2013-01-08 18:25:00,
2013-01-08 13:30:00,35.8,24.8,30.16,SE,136,0.0,2.0,64,0.00,,,0.00,Wunderground PWS Mod,2013-01-08 18:30:00,
2013-01-08 13:41:00,36.8,25.0,30.16,SSE,163,0.0,3.0,62,0.00,,,0.00,Wunderground PWS Mod,2013-01-08 18:41:00,
2013-01-08 13:45:00,37.5,24.9,30.17,SSE,158,1.0,5.0,60,0.01,,,0.01,Wunderground PWS Mod,2013-01-08 18:45:00,
2013-01-08 13:50:00,37.5,24.1,30.16,SSW,213,1.0,4.0,58,0.00,,,0.00,Wunderground PWS Mod,2013-01-08 18:50:00,
2013-01-08 13:55:00,37.6,23.7,30.16,SW,216,2.0,3.0,57,0.00,,,0.00,Wunderground PWS Mod,2013-01-08 18:55:00,
2013-01-08 14:05:00,37.5,24.9,30.17,SSE,166,1.0,3.0,60,0.00,,,0.01,Wunderground PWS Mod,2013-01-08 19:05:00,
2013-01-08 14:11:00,37.3,25.1,30.17,South,169,1.0,5.0,61,0.05,,,0.02,Wunderground PWS Mod,2013-01-08 19:11:00,
2013-01-08 14:20:00,37.5,24.9,30.17,South,184,1.0,5.0,60,0.05,,,0.02,Wunderground PWS Mod,2013-01-08 19:20:00,
2013-01-08 14:25:00,37.5,25.3,30.17,SSW,194,1.0,5.0,61,0.04,,,0.03,Wunderground PWS Mod,2013-01-08 19:25:00,
2013-01-08 14:30:00,37.3,24.7,30.17,SW,215,1.0,5.0,60,0.04,,,0.03,Wunderground PWS Mod,2013-01-08 19:30:00,
2013-01-08 14:35:00,37.2,25.4,30.18,South,180,1.0,5.0,62,0.04,,,0.03,Wunderground PWS Mod,2013-01-08 19:35:00,
2013-01-08 14:40:00,37.2,25.4,30.18,SW,225,1.0,6.0,62,0.03,,,0.05,Wunderground PWS Mod,2013-01-08 19:40:00,
2013-01-08 14:45:00,36.6,25.6,30.18,South,188,1.0,6.0,64,0.04,,,0.04,Wunderground PWS Mod,2013-01-08 19:45:00,
2013-01-08 14:55:00,35.9,25.3,30.19,SSW,196,1.0,6.0,65,0.04,,,0.04,Wunderground PWS Mod,2013-01-08 19:55:00,
2013-01-08 15:05:00,35.6,26.4,30.20,SSW,196,0.0,6.0,69,0.00,,,0.05,Wunderground PWS Mod,2013-01-08 20:05:00,
2013-01-08 15:11:00,35.3,25.8,30.20,SSW,196,0.0,5.0,68,0.00,,,0.05,Wunderground PWS Mod,2013-01-08 20:11:00,
2013-01-08 15:15:00,33.8,26.1,30.22,SSW,203,1.0,7.0,73,0.03,,,0.06,Wunderground PWS Mod,2013-01-08 20:15:00,
2013-01-08 15:20:00,35.0,25.9,30.21,SSW,196,0.0,5.0,69,0.00,,,0.05,Wunderground PWS Mod,2013-01-08 20:20:00,
2013-01-08 15:25:00,34.9,25.8,30.21,SSW,196,0.0,5.0,69,0.00,,,0.06,Wunderground PWS Mod,2013-01-08 20:25:00,
2013-01-08 15:30:00,34.4,26.3,30.21,NNE,24,0.0,5.0,72,0.00,,,0.06,Wunderground PWS Mod,2013-01-08 20:30:00,
2013-01-08 15:35:00,33.8,26.1,30.22,NE,36,2.0,5.0,73,0.00,,,0.06,Wunderground PWS Mod,2013-01-08 20:35:00,
2013-01-08 15:40:00,33.8,26.1,30.22,SSW,203,1.0,7.0,73,0.03,,,0.06,Wunderground PWS Mod,2013-01-08 20:40:00,
2013-01-08 15:45:00,34.1,25.3,30.22,NNE,17,1.0,7.0,70,0.00,,,0.06,Wunderground PWS Mod,2013-01-08 20:45:00,
2013-01-08 15:55:00,33.7,25.6,30.23,NNE,17,0.0,7.0,72,0.00,,,0.06,Wunderground PWS Mod,2013-01-08 20:55:00,
2013-01-08 16:00:00,33.5,25.4,30.23,East,80,0.0,7.0,72,0.00,,,0.06,Wunderground PWS Mod,2013-01-08 21:00:00,
2013-01-08 16:11:00,32.2,25.5,30.23,East,80,0.0,4.0,76,0.00,,,0.06,Wunderground PWS Mod,2013-01-08 21:11:00,
2013-01-08 16:15:00,29.5,25.0,30.24,East,90,0.0,1.0,83,0.00,,,0.06,Wunderground PWS Mod,2013-01-08 21:15:00,
2013-01-08 16:20:00,31.0,25.2,30.24,East,80,0.0,4.0,79,0.00,,,0.06,Wunderground PWS Mod,2013-01-08 21:20:00,
2013-01-08 16:25:00,30.3,24.9,30.24,East,80,0.0,4.0,80,0.00,,,0.06,Wunderground PWS Mod,2013-01-08 21:25:00,
2013-01-08 16:30:00,29.8,25.0,30.24,East,80,0.0,4.0,82,0.00,,,0.06,Wunderground PWS Mod,2013-01-08 21:30:00,
2013-01-08 16:40:00,29.1,24.9,30.24,East,80,0.0,1.0,84,0.00,,,0.06,Wunderground PWS Mod,2013-01-08 21:40:00,
2013-01-08 16:45:00,28.8,24.6,30.24,East,80,0.0,1.0,84,0.00,,,0.06,Wunderground PWS Mod,2013-01-08 21:45:00,
2013-01-08 16:50:00,28.5,24.6,30.24,East,80,0.0,1.0,85,0.00,,,0.06,Wunderground PWS Mod,2013-01-08 21:50:00,
2013-01-08 16:55:00,28.2,24.3,30.24,East,80,0.0,1.0,85,0.00,,,0.06,Wunderground PWS Mod,2013-01-08 21:55:00,
2013-01-08 17:00:00,27.9,24.0,30.24,East,80,0.0,1.0,85,0.00,,,0.06,Wunderground PWS Mod,2013-01-08 22:00:00,
2013-01-08 17:11:00,26.6,23.5,30.25,East,80,1.0,2.0,88,0.00,,,0.06,Wunderground PWS Mod,2013-01-08 22:11:00,
2013-01-08 17:20:00,26.1,23.6,30.26,East,80,1.0,1.0,90,0.00,,,0.06,Wunderground PWS Mod,2013-01-08 22:20:00,
2013-01-08 17:25:00,26.0,23.2,30.26,East,80,1.0,1.0,89,0.00,,,0.06,Wunderground PWS Mod,2013-01-08 22:25:00,
2013-01-08 17:35:00,25.4,22.9,30.26,East,80,0.0,1.0,90,0.00,,,0.06,Wunderground PWS Mod,2013-01-08 22:35:00,
2013-01-08 17:40:00,25.4,23.1,30.26,East,80,0.0,3.0,91,0.00,,,0.06,Wunderground PWS Mod,2013-01-08 22:40:00,
2013-01-08 17:45:00,25.3,22.8,30.26,East,80,0.0,3.0,90,0.00,,,0.06,Wunderground PWS Mod,2013-01-08 22:45:00,
2013-01-08 17:55:00,24.4,22.2,30.28,East,80,0.0,3.0,91,0.00,,,0.06,Wunderground PWS Mod,2013-01-08 22:55:00,
2013-01-08 18:00:00,24.1,21.6,30.28,East,80,0.0,3.0,90,0.00,,,0.06,Wunderground PWS Mod,2013-01-08 23:00:00,
2013-01-08 18:05:00,23.8,21.6,30.28,East,80,0.0,3.0,91,0.00,,,0.06,Wunderground PWS Mod,2013-01-08 23:05:00,
2013-01-08 18:11:00,23.2,20.7,30.28,East,80,0.0,2.0,90,0.00,,,0.06,Wunderground PWS Mod,2013-01-08 23:11:00,
2013-01-08 18:20:00,22.5,20.5,30.28,East,80,0.0,2.0,92,0.00,,,0.06,Wunderground PWS Mod,2013-01-08 23:20:00,
2013-01-08 18:25:00,22.4,20.4,30.28,East,80,0.0,2.0,92,0.00,,,0.06,Wunderground PWS Mod,2013-01-08 23:25:00,
2013-01-08 18:30:00,22.2,20.5,30.28,East,80,0.0,2.0,93,0.00,,,0.06,Wunderground PWS Mod,2013-01-08 23:30:00,
2013-01-08 18:35:00,22.1,20.1,30.28,East,80,0.0,2.0,92,0.00,,,0.06,Wunderground PWS Mod,2013-01-08 23:35:00,
2013-01-08 18:40:00,21.9,20.2,30.28,East,80,0.0,2.0,93,0.00,,,0.06,Wunderground PWS Mod,2013-01-08 23:40:00,
2013-01-08 18:45:00,20.3,18.8,30.30,NE,45,0.0,3.0,94,0.00,,,0.06,Wunderground PWS Mod,2013-01-08 23:45:00,
2013-01-08 18:50:00,20.8,19.1,30.30,NE,38,1.0,2.0,93,0.00,,,0.06,Wunderground PWS Mod,2013-01-08 23:50:00,
2013-01-08 18:55:00,20.5,18.8,30.30,NE,38,1.0,2.0,93,0.00,,,0.06,Wunderground PWS Mod,2013-01-08 23:55:00,
2013-01-08 19:00:00,20.2,18.8,30.30,NE,38,0.0,2.0,94,0.00,,,0.06,Wunderground PWS Mod,2013-01-09 00:00:00,
2013-01-08 19:05:00,20.3,18.8,30.30,NE,38,0.0,2.0,94,0.00,,,0.06,Wunderground PWS Mod,2013-01-09 00:05:00,
2013-01-08 19:11:00,19.7,18.0,30.30,NE,38,1.0,3.0,93,0.00,,,0.06,Wunderground PWS Mod,2013-01-09 00:11:00,
2013-01-08 19:20:00,19.7,18.3,30.31,NE,38,1.0,3.0,94,0.00,,,0.06,Wunderground PWS Mod,2013-01-09 00:20:00,
2013-01-08 19:25:00,19.5,18.1,30.31,NE,38,1.0,3.0,94,0.00,,,0.06,Wunderground PWS Mod,2013-01-09 00:25:00,
2013-01-08 19:30:00,19.4,18.0,30.31,NE,38,2.0,3.0,94,0.00,,,0.06,Wunderground PWS Mod,2013-01-09 00:30:00,
2013-01-08 19:35:00,19.4,18.2,30.32,NE,38,1.0,3.0,95,0.00,,,0.06,Wunderground PWS Mod,2013-01-09 00:35:00,
2013-01-08 19:41:00,19.4,18.2,30.32,NE,38,0.0,4.0,95,0.00,,,0.06,Wunderground PWS Mod,2013-01-09 00:41:00,
2013-01-08 19:45:00,18.8,17.4,30.32,NE,45,0.0,2.0,94,0.00,,,0.06,Wunderground PWS Mod,2013-01-09 00:45:00,
2013-01-08 19:50:00,19.2,18.0,30.32,NE,38,0.0,4.0,95,0.00,,,0.06,Wunderground PWS Mod,2013-01-09 00:50:00,
2013-01-08 19:55:00,19.1,17.9,30.32,NE,38,0.0,4.0,95,0.00,,,0.06,Wunderground PWS Mod,2013-01-09 00:55:00,
2013-01-08 20:00:00,19.1,17.9,30.32,NE,38,0.0,4.0,95,0.00,,,0.06,Wunderground PWS Mod,2013-01-09 01:00:00,
2013-01-08 20:11:00,18.6,17.2,30.32,NE,38,1.0,3.0,94,0.00,,,0.06,Wunderground PWS Mod,2013-01-09 01:11:00,
2013-01-08 20:15:00,18.0,16.6,30.33,NE,45,1.0,5.0,94,0.00,,,0.06,Wunderground PWS Mod,2013-01-09 01:15:00,
2013-01-08 20:20:00,18.1,16.7,30.32,NE,38,0.0,2.0,94,0.00,,,0.06,Wunderground PWS Mod,2013-01-09 01:20:00,
2013-01-08 20:25:00,18.3,17.1,30.32,NE,38,0.0,2.0,95,0.00,,,0.06,Wunderground PWS Mod,2013-01-09 01:25:00,
2013-01-08 20:30:00,18.4,17.2,30.32,NE,38,0.0,2.0,95,0.00,,,0.06,Wunderground PWS Mod,2013-01-09 01:30:00,
2013-01-08 20:35:00,17.8,16.4,30.33,NE,38,1.0,3.0,94,0.00,,,0.06,Wunderground PWS Mod,2013-01-09 01:35:00,
2013-01-08 20:41:00,17.5,16.1,30.33,NNE,32,2.0,5.0,94,0.00,,,0.06,Wunderground PWS Mod,2013-01-09 01:41:00,
2013-01-08 20:50:00,17.0,15.8,30.33,NNE,32,1.0,5.0,95,0.00,,,0.06,Wunderground PWS Mod,2013-01-09 01:50:00,
2013-01-08 20:55:00,17.0,15.8,30.33,NNE,32,2.0,5.0,95,0.00,,,0.06,Wunderground PWS Mod,2013-01-09 01:55:00,
2013-01-08 21:00:00,16.9,15.7,30.33,NNE,32,0.0,5.0,95,0.00,,,0.06,Wunderground PWS Mod,2013-01-09 02:00:00,
2013-01-08 21:05:00,16.2,14.8,30.33,NNE,32,0.0,5.0,94,0.00,,,0.06,Wunderground PWS Mod,2013-01-09 02:05:00,
2013-01-08 21:11:00,15.9,14.5,30.33,NNE,32,0.0,5.0,94,0.00,,,0.06,Wunderground PWS Mod,2013-01-09 02:11:00,
2013-01-08 21:15:00,15.1,13.7,30.33,NNE,23,1.0,4.0,94,0.00,,,0.06,Wunderground PWS Mod,2013-01-09 02:15:00,
2013-01-08 21:20:00,15.7,14.5,30.32,NNE,32,1.0,5.0,95,0.00,,,0.06,Wunderground PWS Mod,2013-01-09 02:20:00,
2013-01-08 21:25:00,15.4,14.0,30.32,NNE,32,1.0,5.0,94,0.00,,,0.06,Wunderground PWS Mod,2013-01-09 02:25:00,
2013-01-08 21:35:00,15.1,13.7,30.32,NNE,32,1.0,5.0,94,0.00,,,0.06,Wunderground PWS Mod,2013-01-09 02:35:00,
2013-01-08 21:41:00,14.9,13.5,30.32,NNE,32,0.0,4.0,94,0.00,,,0.06,Wunderground PWS Mod,2013-01-09 02:41:00,
2013-01-08 21:50:00,14.4,13.0,30.32,NNE,32,0.0,4.0,94,0.00,,,0.06,Wunderground PWS Mod,2013-01-09 02:50:00,
2013-01-08 21:55:00,14.3,12.9,30.32,NNE,32,0.0,4.0,94,0.00,,,0.06,Wunderground PWS Mod,2013-01-09 02:55:00,
2013-01-08 22:00:00,14.1,12.7,30.32,NNE,32,0.0,4.0,94,0.00,,,0.06,Wunderground PWS Mod,2013-01-09 03:00:00,
2013-01-08 22:05:00,14.0,12.6,30.32,NNE,32,0.0,4.0,94,0.00,,,0.06,Wunderground PWS Mod,2013-01-09 03:05:00,
2013-01-08 22:11:00,13.8,12.4,30.32,NNE,32,0.0,0.0,94,0.00,,,0.06,Wunderground PWS Mod,2013-01-09 03:11:00,
2013-01-08 22:15:00,13.3,11.9,30.32,NNE,23,0.0,1.0,94,0.00,,,0.06,Wunderground PWS Mod,2013-01-09 03:15:00,
2013-01-08 22:20:00,13.5,11.9,30.32,NNE,32,0.0,0.0,93,0.00,,,0.06,Wunderground PWS Mod,2013-01-09 03:20:00,
2013-01-08 22:25:00,13.3,11.7,30.32,NNE,32,0.0,0.0,93,0.00,,,0.06,Wunderground PWS Mod,2013-01-09 03:25:00,
2013-01-08 22:35:00,13.3,11.9,30.32,NNE,32,0.0,0.0,94,0.00,,,0.06,Wunderground PWS Mod,2013-01-09 03:35:00,
2013-01-08 22:41:00,12.9,11.3,30.32,NNE,32,0.0,1.0,93,0.00,,,0.06,Wunderground PWS Mod,2013-01-09 03:41:00,
2013-01-08 22:50:00,12.4,10.8,30.32,NNE,32,0.0,1.0,93,0.00,,,0.06,Wunderground PWS Mod,2013-01-09 03:50:00,
2013-01-08 22:56:00,12.1,10.2,30.32,NNE,32,0.0,1.0,92,0.00,,,0.06,Wunderground PWS Mod,2013-01-09 03:56:00,
2013-01-08 23:05:00,11.6,10.0,30.33,NNE,32,0.0,1.0,93,0.00,,,0.06,Wunderground PWS Mod,2013-01-09 04:05:00,
2013-01-08 23:11:00,11.6,9.7,30.33,NNE,32,0.0,0.0,92,0.00,,,0.06,Wunderground PWS Mod,2013-01-09 04:11:00,
2013-01-08 23:20:00,11.6,10.0,30.32,NNE,32,0.0,0.0,93,0.00,,,0.06,Wunderground PWS Mod,2013-01-09 04:20:00,
2013-01-08 23:26:00,11.2,9.1,30.32,NNE,32,0.0,0.0,91,0.00,,,0.06,Wunderground PWS Mod,2013-01-09 04:26:00,
2013-01-08 23:35:00,10.5,8.4,30.33,NNE,32,0.0,0.0,91,0.00,,,0.06,Wunderground PWS Mod,2013-01-09 04:35:00,
2013-01-08 23:41:00,10.4,8.3,30.33,NNE,32,1.0,2.0,91,0.00,,,0.06,Wunderground PWS Mod,2013-01-09 04:41:00,
2013-01-08 23:45:00,9.7,7.6,30.33,NNE,23,1.0,4.0,91,0.00,,,0.06,Wunderground PWS Mod,2013-01-09 04:45:00,
2013-01-08 23:50:00,10.4,8.3,30.33,NNE,32,2.0,2.0,91,0.00,,,0.06,Wunderground PWS Mod,2013-01-09 04:50:00,
2013-01-08 23:55:00,10.0,7.9,30.33,NNE,32,1.0,1.0,91,0.00,,,0.06,Wunderground PWS Mod,2013-01-09 04:55:00,